Time;durP1;ratioP1;P1;durP2;ratioP2;P2;SDS_P1;SDS_P2;PMS_P1;PMS_P2;Temp;Humidity;BMP_temperature;BMP_pressure;BME280_temperature;BME280_humidity;BME280_pressure;Samples;Min_cycle;Max_cycle;Signal;HPM_P1;HPM_P2
2022/12/09 00:02:04;;;;;;;;;;;;;;;;;;4956353;28;21516;-54
2022/12/09 00:04:29;;;;;;;;;;;;;;;;;;4956017;28;19918;-54
2022/12/09 00:06:54;;;;;;;;;;;;;;;;;;5035730;28;20388;-53
2022/12/09 00:09:19;;;;;;;;;;;;;;;;;;4951287;28;20442;-53
2022/12/09 00:11:45;;;;;;;;;;;;;;;;;;4955546;28;19918;-53
2022/12/09 00:14:13;;;;;;;;;;;;;;;;;;5040112;28;19918;-53
2022/12/09 00:16:38;;;;;;;;;;;;;;;;;;5018954;28;20503;-53
2022/12/09 00:22:19;;;;;;;;;;;;;;;;;;4953448;28;20178;-53
2022/12/09 00:24:44;;;;;;;;;;;;;;;;;;5035980;28;20299;-54
2022/12/09 00:27:12;;;;;;;;;;;;;;;;;;5024334;28;20154;-53
2022/12/09 00:29:37;;;;;;;;;;;;;;;;;;5002969;28;20595;-54
2022/12/09 00:32:03;;;;;;;;;;;;;;;;;;4956715;28;19922;-55
2022/12/09 00:34:32;;;;;;;;;;;;;;;;;;4954607;28;20379;-54
2022/12/09 00:37:00;;;;;;;;;;;;;;;;;;5040649;28;19926;-53
2022/12/09 00:39:25;;;;;;;;;;;;;;;;;;5005852;28;20185;-54
2022/12/09 00:41:50;;;;;;;;;;;;;;;;;;5026488;28;20036;-54
2022/12/09 00:44:16;;;;;;;;;;;;;;;;;;4958505;28;20475;-55
2022/12/09 00:46:42;;;;;;;;;;;;;;;;;;5025651;28;19965;-54
2022/12/09 00:49:07;;;;;;;;;;;;;;;;;;5027599;28;20225;-54
2022/12/09 00:51:32;;;;;;;;;;;;;;;;;;4957811;28;19922;-55
2022/12/09 00:53:57;;;;;;;;;;;;;;;;;;4958457;28;19917;-55
2022/12/09 00:56:23;;;;;;;;;;;;;;;;;;5038565;28;20056;-53
2022/12/09 00:58:48;;;;;;;;;;;;;;;;;;4958125;28;20377;-52
2022/12/09 01:01:16;;;;;;;;;;;;;;;;;;5007725;28;19979;-54
2022/12/09 01:03:42;;;;;;;;;;;;;;;;;;5027582;28;19922;-54
2022/12/09 01:06:07;;;;;;;;;;;;;;;;;;5043590;28;19929;-54
2022/12/09 01:08:32;;;;;;;;;;;;;;;;;;5021078;28;19928;-54
2022/12/09 01:10:57;;;;;;;;;;;;;;;;;;4956595;28;19926;-51
2022/12/09 01:13:23;;;;;;;;;;;;;;;;;;4956570;28;19922;-53
2022/12/09 01:15:48;;;;;;;;;;;;;;;;;;4959296;28;19918;-53
2022/12/09 01:18:16;;;;;;;;;;;;;;;;;;5057731;28;21196;-53
2022/12/09 01:20:42;;;;;;;;;;;;;;;;;;5042131;28;19924;-53
2022/12/09 01:23:09;;;;;;;;;;;;;;;;;;5057196;28;19946;-54
2022/12/09 01:25:37;;;;;;;;;;;;;;;;;;5056198;28;19923;-53
2022/12/09 01:28:05;;;;;;;;;;;;;;;;;;5056920;28;19920;-52
2022/12/09 01:30:30;;;;;;;;;;;;;;;;;;5041134;28;20593;-54
2022/12/09 01:32:58;;;;;;;;;;;;;;;;;;5039846;28;19946;-53
2022/12/09 01:35:28;;;;;;;;;;;;;;;;;;5039129;28;20241;-52
2022/12/09 01:37:53;;;;;;;;;;;;;;;;;;5035893;28;20003;-53
2022/12/09 01:40:23;;;;;;;;;;;;;;;;;;5036469;28;19951;-52
2022/12/09 01:42:49;;;;;;;;;;;;;;;;;;5038439;28;19920;-53
2022/12/09 01:45:17;;;;;;;;;;;;;;;;;;5053692;28;19970;-51
2022/12/09 01:47:43;;;;;;;;;;;;;;;;;;5055495;28;20018;-54
2022/12/09 01:50:10;;;;;;;;;;;;;;;;;;5058321;28;19927;-53
2022/12/09 01:52:38;;;;;;;;;;;;;;;;;;5038964;28;19920;-53
2022/12/09 01:55:03;;;;;;;;;;;;;;;;;;5038417;28;19991;-53
2022/12/09 01:57:30;;;;;;;;;;;;;;;;;;5057725;28;20493;-53
2022/12/09 01:59:56;;;;;;;;;;;;;;;;;;5040044;28;20357;-54
2022/12/09 02:02:21;;;;;;;;;;;;;;;;;;5036452;28;19923;-53
2022/12/09 02:04:49;;;;;;;;;;;;;;;;;;5038004;28;20063;-54
2022/12/09 02:07:14;;;;;;;;;;;;;;;;;;5053734;28;20122;-53
2022/12/09 02:09:40;;;;;;;;;;;;;;;;;;5038522;28;20295;-53
2022/12/09 02:12:05;;;;;;;;;;;;;;;;;;5038368;28;19977;-52
2022/12/09 02:14:33;;;;;;;;;;;;;;;;;;5039404;28;19959;-52
2022/12/09 02:17:00;;;;;;;;;;;;;;;;;;5055571;28;19924;-50
2022/12/09 02:19:28;;;;;;;;;;;;;;;;;;5056060;28;19927;-54
2022/12/09 02:21:54;;;;;;;;;;;;;;;;;;5056374;28;19921;-53
2022/12/09 02:24:23;;;;;;;;;;;;;;;;;;5056389;28;19927;-53
2022/12/09 02:26:51;;;;;;;;;;;;;;;;;;5056121;28;19928;-55
2022/12/09 02:29:17;;;;;;;;;;;;;;;;;;5037655;28;20047;-54
2022/12/09 02:31:42;;;;;;;;;;;;;;;;;;5039296;28;19920;-52
2022/12/09 02:34:12;;;;;;;;;;;;;;;;;;5054937;28;20528;-53
2022/12/09 02:36:40;;;;;;;;;;;;;;;;;;5056149;28;19916;-52
2022/12/09 02:39:05;;;;;;;;;;;;;;;;;;5054272;28;20002;-52
2022/12/09 02:41:32;;;;;;;;;;;;;;;;;;5055490;28;20411;-52
2022/12/09 02:44:00;;;;;;;;;;;;;;;;;;5039491;28;20390;-53
2022/12/09 02:46:25;;;;;;;;;;;;;;;;;;5055921;28;19926;-52
2022/12/09 02:48:50;;;;;;;;;;;;;;;;;;5054840;28;20064;-53
2022/12/09 02:51:18;;;;;;;;;;;;;;;;;;5038476;28;20541;-53
2022/12/09 02:53:43;;;;;;;;;;;;;;;;;;5036951;28;20001;-54
2022/12/09 02:56:09;;;;;;;;;;;;;;;;;;5055937;28;20454;-53
2022/12/09 02:58:35;;;;;;;;;;;;;;;;;;5054588;28;19916;-54
2022/12/09 03:01:00;;;;;;;;;;;;;;;;;;5026152;28;19928;-54
2022/12/09 03:03:28;;;;;;;;;;;;;;;;;;5053825;28;21096;-53
2022/12/09 03:05:54;;;;;;;;;;;;;;;;;;5041540;28;19920;-52
2022/12/09 03:08:19;;;;;;;;;;;;;;;;;;5038775;28;19917;-53
2022/12/09 03:10:47;;;;;;;;;;;;;;;;;;5052698;28;19921;-52
2022/12/09 03:13:12;;;;;;;;;;;;;;;;;;5056192;28;19935;-51
2022/12/09 03:15:38;;;;;;;;;;;;;;;;;;5054617;28;20294;-54
2022/12/09 03:18:05;;;;;;;;;;;;;;;;;;5021643;28;19996;-55
2022/12/09 03:20:31;;;;;;;;;;;;;;;;;;5021762;28;19990;-51
2022/12/09 03:22:56;;;;;;;;;;;;;;;;;;5054353;28;20601;-54
2022/12/09 03:25:21;;;;;;;;;;;;;;;;;;5052866;28;19936;-53
2022/12/09 03:27:48;;;;;;;;;;;;;;;;;;5054709;28;19924;-54
2022/12/09 03:30:14;;;;;;;;;;;;;;;;;;5054237;28;21084;-54
2022/12/09 03:32:42;;;;;;;;;;;;;;;;;;5055792;28;20589;-53
2022/12/09 03:35:08;;;;;;;;;;;;;;;;;;5039903;28;20389;-52
2022/12/09 03:37:35;;;;;;;;;;;;;;;;;;5036405;28;19916;-53
2022/12/09 03:40:01;;;;;;;;;;;;;;;;;;5054397;28;19935;-53
2022/12/09 03:42:26;;;;;;;;;;;;;;;;;;5053456;28;19927;-54
2022/12/09 03:44:52;;;;;;;;;;;;;;;;;;5037719;28;20374;-55
2022/12/09 03:47:17;;;;;;;;;;;;;;;;;;5033715;28;20283;-54
2022/12/09 03:49:45;;;;;;;;;;;;;;;;;;5056743;28;19916;-53
2022/12/09 03:52:11;;;;;;;;;;;;;;;;;;5053538;28;19920;-54
2022/12/09 03:54:36;;;;;;;;;;;;;;;;;;5054617;28;20054;-54
2022/12/09 03:57:01;;;;;;;;;;;;;;;;;;5055689;28;19920;-51
2022/12/09 03:59:29;;;;;;;;;;;;;;;;;;5036643;28;20481;-53
2022/12/09 04:01:54;;;;;;;;;;;;;;;;;;5056161;28;20019;-54
2022/12/09 04:04:20;;;;;;;;;;;;;;;;;;5051384;28;20367;-55
2022/12/09 04:06:47;;;;;;;;;;;;;;;;;;5055443;28;20015;-54
2022/12/09 04:09:13;;;;;;;;;;;;;;;;;;5053943;28;19943;-54
2022/12/09 04:11:43;;;;;;;;;;;;;;;;;;5036747;28;20425;-54
2022/12/09 04:14:08;;;;;;;;;;;;;;;;;;5060290;28;19927;-54
2022/12/09 04:16:33;;;;;;;;;;;;;;;;;;5058703;28;19924;-54
2022/12/09 04:18:59;;;;;;;;;;;;;;;;;;5031580;28;19923;-54
2022/12/09 04:21:27;;;;;;;;;;;;;;;;;;5059795;28;19984;-54
2022/12/09 04:23:52;;;;;;;;;;;;;;;;;;5043587;28;21465;-54
2022/12/09 04:26:17;;;;;;;;;;;;;;;;;;5058953;28;19916;-54
2022/12/09 04:28:45;;;;;;;;;;;;;;;;;;5059213;28;19916;-55
2022/12/09 04:31:11;;;;;;;;;;;;;;;;;;5059156;28;19938;-52
2022/12/09 04:33:36;;;;;;;;;;;;;;;;;;5043944;28;19960;-50
2022/12/09 04:36:01;;;;;;;;;;;;;;;;;;5026996;28;19927;-54
2022/12/09 04:38:29;;;;;;;;;;;;;;;;;;5056631;28;19920;-53
2022/12/09 04:40:56;;;;;;;;;;;;;;;;;;5038398;28;20966;-53
2022/12/09 04:43:22;;;;;;;;;;;;;;;;;;5026565;28;20021;-54
2022/12/09 04:45:47;;;;;;;;;;;;;;;;;;5020290;28;19916;-55
2022/12/09 04:48:12;;;;;;;;;;;;;;;;;;5058791;28;21897;-54
2022/12/09 04:50:38;;;;;;;;;;;;;;;;;;5041027;28;20384;-54
2022/12/09 04:53:03;;;;;;;;;;;;;;;;;;5059538;28;19987;-54
2022/12/09 04:55:31;;;;;;;;;;;;;;;;;;5043535;28;19921;-54
2022/12/09 04:57:58;;;;;;;;;;;;;;;;;;5055890;28;19916;-54
2022/12/09 05:00:23;;;;;;;;;;;;;;;;;;5057819;28;20082;-55
2022/12/09 05:02:49;;;;;;;;;;;;;;;;;;5058246;28;20510;-54
2022/12/09 05:05:14;;;;;;;;;;;;;;;;;;5044977;28;19952;-54
2022/12/09 05:07:39;;;;;;;;;;;;;;;;;;5058905;28;19947;-53
2022/12/09 05:10:07;;;;;;;;;;;;;;;;;;5059453;28;19920;-53
2022/12/09 05:12:37;;;;;;;;;;;;;;;;;;5057709;28;19920;-55
2022/12/09 05:15:05;;;;;;;;;;;;;;;;;;5061051;28;19916;-55
2022/12/09 05:17:32;;;;;;;;;;;;;;;;;;5040876;28;20394;-55
2022/12/09 05:19:58;;;;;;;;;;;;;;;;;;5040407;28;20341;-54
2022/12/09 05:22:25;;;;;;;;;;;;;;;;;;5024124;28;19931;-55
2022/12/09 05:24:53;;;;;;;;;;;;;;;;;;5040938;28;20864;-55
2022/12/09 05:27:23;;;;;;;;;;;;;;;;;;5040540;28;19916;-54
2022/12/09 05:29:49;;;;;;;;;;;;;;;;;;5058544;28;20050;-54
2022/12/09 05:32:14;;;;;;;;;;;;;;;;;;5058232;28;19920;-52
2022/12/09 05:34:41;;;;;;;;;;;;;;;;;;5057789;28;19920;-54
2022/12/09 05:37:11;;;;;;;;;;;;;;;;;;5058073;28;20270;-55
2022/12/09 05:39:39;;;;;;;;;;;;;;;;;;5057701;28;19921;-54
2022/12/09 05:42:04;;;;;;;;;;;;;;;;;;5041265;28;19927;-54
2022/12/09 05:44:29;;;;;;;;;;;;;;;;;;5059342;28;19931;-54
2022/12/09 05:46:56;;;;;;;;;;;;;;;;;;5057167;28;19927;-54
2022/12/09 05:49:23;;;;;;;;;;;;;;;;;;5057801;28;19997;-53
2022/12/09 05:51:52;;;;;;;;;;;;;;;;;;5037742;28;19920;-55
2022/12/09 05:54:20;;;;;;;;;;;;;;;;;;5057626;28;21630;-54
2022/12/09 05:56:46;;;;;;;;;;;;;;;;;;5035909;28;20045;-55
2022/12/09 05:59:11;;;;;;;;;;;;;;;;;;5037666;28;19920;-54
2022/12/09 06:01:36;;;;;;;;;;;;;;;;;;5036419;28;19935;-54
2022/12/09 06:04:02;;;;;;;;;;;;;;;;;;5037864;28;19928;-53
2022/12/09 06:06:29;;;;;;;;;;;;;;;;;;5054830;28;19967;-54
2022/12/09 06:08:55;;;;;;;;;;;;;;;;;;5053229;28;20541;-54
2022/12/09 06:11:25;;;;;;;;;;;;;;;;;;5036922;28;19994;-54
2022/12/09 06:13:52;;;;;;;;;;;;;;;;;;5035063;28;20692;-53
2022/12/09 06:16:18;;;;;;;;;;;;;;;;;;5054134;28;19924;-55
2022/12/09 06:18:43;;;;;;;;;;;;;;;;;;5055462;28;19916;-55
2022/12/09 06:21:08;;;;;;;;;;;;;;;;;;5054771;28;19951;-53
2022/12/09 06:23:35;;;;;;;;;;;;;;;;;;5037190;28;19924;-53
2022/12/09 06:26:01;;;;;;;;;;;;;;;;;;5032693;28;19992;-53
2022/12/09 06:28:29;;;;;;;;;;;;;;;;;;5055339;28;20647;-53
2022/12/09 06:30:54;;;;;;;;;;;;;;;;;;5039133;28;19920;-54
2022/12/09 06:33:24;;;;;;;;;;;;;;;;;;5052787;28;19920;-52
2022/12/09 06:35:50;;;;;;;;;;;;;;;;;;5039452;28;19928;-54
2022/12/09 06:38:17;;;;;;;;;;;;;;;;;;5036000;28;19920;-54
2022/12/09 06:40:43;;;;;;;;;;;;;;;;;;5020578;28;21908;-54
2022/12/09 06:43:10;;;;;;;;;;;;;;;;;;5036409;28;20036;-53
2022/12/09 06:45:40;;;;;;;;;;;;;;;;;;5054158;28;20159;-54
2022/12/09 06:48:07;;;;;;;;;;;;;;;;;;5053889;28;19931;-54
2022/12/09 06:50:33;;;;;;;;;;;;;;;;;;5039524;28;19920;-53
2022/12/09 06:53:00;;;;;;;;;;;;;;;;;;5055769;28;20459;-54
2022/12/09 06:55:28;;;;;;;;;;;;;;;;;;5041606;28;19965;-53
2022/12/09 06:57:56;;;;;;;;;;;;;;;;;;5037055;28;20213;-53
2022/12/09 07:00:23;;;;;;;;;;;;;;;;;;5055078;28;20349;-51
2022/12/09 07:02:53;;;;;;;;;;;;;;;;;;5039290;28;20062;-53
2022/12/09 07:05:21;;;;;;;;;;;;;;;;;;5033138;28;20565;-55
2022/12/09 07:07:49;;;;;;;;;;;;;;;;;;5047503;28;19920;-54
2022/12/09 07:10:16;;;;;;;;;;;;;;;;;;5051249;28;19912;-54
2022/12/09 07:12:41;;;;;;;;;;;;;;;;;;5055362;28;19920;-54
2022/12/09 07:15:06;;;;;;;;;;;;;;;;;;5058750;28;20568;-54
2022/12/09 07:17:34;;;;;;;;;;;;;;;;;;5056912;28;19931;-55
2022/12/09 07:19:59;;;;;;;;;;;;;;;;;;5052750;28;19928;-55
2022/12/09 07:22:27;;;;;;;;;;;;;;;;;;5053663;28;19930;-55
2022/12/09 07:24:54;;;;;;;;;;;;;;;;;;5057474;28;20423;-54
2022/12/09 07:27:20;;;;;;;;;;;;;;;;;;5038496;28;19927;-55
2022/12/09 07:29:45;;;;;;;;;;;;;;;;;;5058908;28;20379;-53
2022/12/09 07:32:10;;;;;;;;;;;;;;;;;;5057760;28;19920;-55
2022/12/09 07:34:36;;;;;;;;;;;;;;;;;;5044548;28;19924;-54
2022/12/09 07:37:01;;;;;;;;;;;;;;;;;;5052599;28;19985;-53
2022/12/09 07:39:31;;;;;;;;;;;;;;;;;;5059865;28;19916;-53
2022/12/09 07:41:56;;;;;;;;;;;;;;;;;;5056936;28;20671;-55
2022/12/09 07:44:26;;;;;;;;;;;;;;;;;;5040767;28;19956;-54
2022/12/09 07:46:52;;;;;;;;;;;;;;;;;;5056851;28;19933;-53
2022/12/09 07:49:19;;;;;;;;;;;;;;;;;;5051372;28;19928;-53
2022/12/09 07:51:47;;;;;;;;;;;;;;;;;;5055715;28;19918;-54
2022/12/09 07:54:12;;;;;;;;;;;;;;;;;;5038606;28;19966;-53
2022/12/09 07:56:40;;;;;;;;;;;;;;;;;;5055551;28;20524;-51
2022/12/09 07:59:05;;;;;;;;;;;;;;;;;;5040098;28;19996;-56
2022/12/09 08:01:31;;;;;;;;;;;;;;;;;;5058678;28;19928;-54
2022/12/09 08:03:58;;;;;;;;;;;;;;;;;;5056896;28;20836;-54
2022/12/09 08:06:24;;;;;;;;;;;;;;;;;;5058433;28;20438;-53
2022/12/09 08:08:49;;;;;;;;;;;;;;;;;;5039039;28;19921;-54
2022/12/09 08:11:14;;;;;;;;;;;;;;;;;;5036629;28;19989;-55
2022/12/09 08:13:43;;;;;;;;;;;;;;;;;;5056032;28;20354;-54
2022/12/09 08:16:08;;;;;;;;;;;;;;;;;;5056828;28;19938;-56
2022/12/09 08:18:36;;;;;;;;;;;;;;;;;;5057132;28;21489;-55
2022/12/09 08:21:03;;;;;;;;;;;;;;;;;;5032781;28;20491;-55
2022/12/09 08:23:31;;;;;;;;;;;;;;;;;;5034979;28;20530;-54
2022/12/09 08:25:56;;;;;;;;;;;;;;;;;;5039966;28;19927;-54
2022/12/09 08:28:24;;;;;;;;;;;;;;;;;;5055513;28;19916;-54
2022/12/09 08:30:49;;;;;;;;;;;;;;;;;;5058144;28;19989;-54
2022/12/09 08:33:14;;;;;;;;;;;;;;;;;;5041480;28;20605;-55
2022/12/09 08:35:42;;;;;;;;;;;;;;;;;;5057227;28;20325;-53
2022/12/09 08:38:07;;;;;;;;;;;;;;;;;;5057626;28;19997;-55
2022/12/09 08:40:35;;;;;;;;;;;;;;;;;;5058614;28;19946;-54
2022/12/09 08:43:00;;;;;;;;;;;;;;;;;;5052783;28;20632;-54
2022/12/09 08:45:28;;;;;;;;;;;;;;;;;;5057636;28;19916;-54
2022/12/09 08:47:53;;;;;;;;;;;;;;;;;;5053393;28;20212;-55
2022/12/09 08:50:19;;;;;;;;;;;;;;;;;;5051269;28;20494;-54
2022/12/09 08:52:44;;;;;;;;;;;;;;;;;;5053445;28;20098;-54
2022/12/09 08:55:09;;;;;;;;;;;;;;;;;;5051006;28;19920;-55
2022/12/09 08:57:35;;;;;;;;;;;;;;;;;;5052146;28;20164;-54
2022/12/09 09:00:02;;;;;;;;;;;;;;;;;;5054934;28;20567;-55
2022/12/09 09:02:30;;;;;;;;;;;;;;;;;;5059117;28;19966;-56
2022/12/09 09:04:56;;;;;;;;;;;;;;;;;;5060254;28;20050;-55
2022/12/09 09:07:21;;;;;;;;;;;;;;;;;;5038833;28;19924;-55
2022/12/09 09:09:48;;;;;;;;;;;;;;;;;;5060349;28;19970;-54
2022/12/09 09:12:13;;;;;;;;;;;;;;;;;;5056961;28;19990;-54
2022/12/09 09:14:39;;;;;;;;;;;;;;;;;;5061784;28;20580;-53
2022/12/09 09:17:05;;;;;;;;;;;;;;;;;;5055879;28;19931;-56
2022/12/09 09:19:31;;;;;;;;;;;;;;;;;;5054345;28;19927;-57
2022/12/09 09:21:57;;;;;;;;;;;;;;;;;;5055400;28;19939;-54
2022/12/09 09:24:23;;;;;;;;;;;;;;;;;;5058433;28;20030;-55
2022/12/09 09:26:50;;;;;;;;;;;;;;;;;;5031503;28;19967;-54
2022/12/09 09:29:16;;;;;;;;;;;;;;;;;;5039042;28;20624;-53
2022/12/09 09:31:47;;;;;;;;;;;;;;;;;;5038500;28;19925;-55
2022/12/09 09:34:17;;;;;;;;;;;;;;;;;;5019566;28;19924;-55
2022/12/09 09:36:43;;;;;;;;;;;;;;;;;;5037406;28;19966;-54
2022/12/09 09:39:08;;;;;;;;;;;;;;;;;;5039520;28;19921;-56
2022/12/09 09:41:33;;;;;;;;;;;;;;;;;;5055927;28;19935;-55
2022/12/09 09:43:58;;;;;;;;;;;;;;;;;;5039910;28;19928;-55
2022/12/09 09:46:26;;;;;;;;;;;;;;;;;;5052654;28;19974;-55
2022/12/09 09:48:51;;;;;;;;;;;;;;;;;;5037665;28;19920;-55
2022/12/09 09:51:19;;;;;;;;;;;;;;;;;;5055192;28;20452;-54
2022/12/09 09:53:47;;;;;;;;;;;;;;;;;;5039626;28;19982;-56
2022/12/09 09:56:14;;;;;;;;;;;;;;;;;;5051814;28;19916;-53
2022/12/09 09:58:44;;;;;;;;;;;;;;;;;;5056909;28;20215;-54
2022/12/09 10:01:10;;;;;;;;;;;;;;;;;;5035137;28;20423;-53
2022/12/09 10:03:38;;;;;;;;;;;;;;;;;;5055789;28;19919;-54
2022/12/09 10:06:03;;;;;;;;;;;;;;;;;;5055204;28;19916;-55
2022/12/09 10:08:29;;;;;;;;;;;;;;;;;;5055157;28;19920;-55
2022/12/09 10:10:58;;;;;;;;;;;;;;;;;;5055593;28;19920;-54
2022/12/09 10:13:26;;;;;;;;;;;;;;;;;;5051419;28;20019;-54
2022/12/09 10:15:51;;;;;;;;;;;;;;;;;;5056289;28;20320;-54
2022/12/09 10:18:17;;;;;;;;;;;;;;;;;;5034728;28;19924;-53
2022/12/09 10:20:44;;;;;;;;;;;;;;;;;;5035675;28;19928;-54
2022/12/09 10:23:12;;;;;;;;;;;;;;;;;;5021212;28;20088;-52
2022/12/09 10:25:40;;;;;;;;;;;;;;;;;;5053078;28;19916;-53
2022/12/09 10:28:05;;;;;;;;;;;;;;;;;;5049268;28;19923;-53
2022/12/09 10:30:31;;;;;;;;;;;;;;;;;;5059092;28;19928;-53
2022/12/09 10:32:56;;;;;;;;;;;;;;;;;;5055191;28;20394;-54
2022/12/09 10:35:21;;;;;;;;;;;;;;;;;;5056063;28;20949;-54
2022/12/09 10:37:47;;;;;;;;;;;;;;;;;;5034454;28;20375;-54
2022/12/09 10:40:13;;;;;;;;;;;;;;;;;;5053467;28;19977;-55
2022/12/09 10:45:23;;;;;;;;;;;;;;;;;;5054047;28;19920;-53
2022/12/09 10:47:48;;;;;;;;;;;;;;;;;;5055903;28;19916;-52
2022/12/09 10:50:18;;;;;;;;;;;;;;;;;;5036123;28;19916;-56
2022/12/09 10:52:43;;;;;;;;;;;;;;;;;;5035772;28;19928;-56
2022/12/09 10:55:09;;;;;;;;;;;;;;;;;;5054788;28;20004;-55
2022/12/09 10:57:34;;;;;;;;;;;;;;;;;;5030337;28;20423;-52
2022/12/09 11:00:00;;;;;;;;;;;;;;;;;;5053525;28;19928;-54
2022/12/09 11:02:25;;;;;;;;;;;;;;;;;;5054588;28;20842;-54
2022/12/09 11:04:51;;;;;;;;;;;;;;;;;;5039789;28;20023;-55
2022/12/09 11:07:16;;;;;;;;;;;;;;;;;;5036137;28;20554;-53
2022/12/09 11:09:46;;;;;;;;;;;;;;;;;;5049827;28;19916;-54
2022/12/09 11:12:12;;;;;;;;;;;;;;;;;;5036384;28;20934;-51
2022/12/09 11:14:37;;;;;;;;;;;;;;;;;;5052889;28;19928;-54
2022/12/09 11:17:02;;;;;;;;;;;;;;;;;;5054834;28;20345;-55
2022/12/09 11:19:28;;;;;;;;;;;;;;;;;;5054665;28;20026;-55
2022/12/09 11:21:53;;;;;;;;;;;;;;;;;;5052866;28;21043;-54
2022/12/09 11:24:19;;;;;;;;;;;;;;;;;;5050364;28;20030;-53
2022/12/09 11:26:44;;;;;;;;;;;;;;;;;;5049721;28;20105;-56
2022/12/09 11:29:12;;;;;;;;;;;;;;;;;;5036783;28;20441;-56
2022/12/09 11:31:39;;;;;;;;;;;;;;;;;;5053046;28;19988;-53
2022/12/09 11:34:07;;;;;;;;;;;;;;;;;;5053180;28;19999;-54
2022/12/09 11:36:35;;;;;;;;;;;;;;;;;;5054992;28;19920;-55
2022/12/09 11:39:02;;;;;;;;;;;;;;;;;;5055923;28;20685;-53
2022/12/09 11:44:15;;;;;;;;;;;;;;;;;;5035785;28;19986;-52
2022/12/09 11:46:43;;;;;;;;;;;;;;;;;;5053353;28;20265;-53
2022/12/09 11:49:12;;;;;;;;;;;;;;;;;;5053058;28;20011;-55
2022/12/09 11:51:40;;;;;;;;;;;;;;;;;;5051741;28;19920;-54
2022/12/09 11:54:06;;;;;;;;;;;;;;;;;;5054256;28;19927;-56
2022/12/09 11:56:33;;;;;;;;;;;;;;;;;;5032480;28;19968;-54
2022/12/09 11:58:58;;;;;;;;;;;;;;;;;;5036657;28;20011;-54
2022/12/09 12:01:24;;;;;;;;;;;;;;;;;;5054245;28;19926;-55
2022/12/09 12:03:52;;;;;;;;;;;;;;;;;;5048406;28;20070;-54
2022/12/09 12:06:19;;;;;;;;;;;;;;;;;;5038173;28;19916;-55
2022/12/09 12:08:45;;;;;;;;;;;;;;;;;;5036884;28;19943;-54
2022/12/09 12:11:11;;;;;;;;;;;;;;;;;;5051622;28;19924;-54
2022/12/09 12:13:36;;;;;;;;;;;;;;;;;;5041480;28;20402;-55
2022/12/09 12:16:01;;;;;;;;;;;;;;;;;;5051836;28;19920;-55
2022/12/09 12:18:26;;;;;;;;;;;;;;;;;;5054871;28;20005;-56
2022/12/09 12:20:52;;;;;;;;;;;;;;;;;;5034133;28;19924;-57
2022/12/09 12:23:19;;;;;;;;;;;;;;;;;;5037148;28;20512;-57
2022/12/09 12:25:49;;;;;;;;;;;;;;;;;;5036901;28;20434;-57
2022/12/09 12:28:17;;;;;;;;;;;;;;;;;;5047655;28;19920;-56
2022/12/09 12:30:45;;;;;;;;;;;;;;;;;;5052715;28;19928;-57
2022/12/09 12:33:10;;;;;;;;;;;;;;;;;;5033420;28;19917;-57
2022/12/09 12:35:38;;;;;;;;;;;;;;;;;;5061220;28;19922;-56
2022/12/09 12:38:04;;;;;;;;;;;;;;;;;;5059819;28;19935;-57
2022/12/09 12:40:29;;;;;;;;;;;;;;;;;;5058768;28;19920;-59
2022/12/09 12:48:28;;;;;;;;;;;;;;;;;;5037364;28;20622;-60
2022/12/09 12:50:53;;;;;;;;;;;;;;;;;;5042523;28;19920;-58
2022/12/09 12:53:18;;;;;;;;;;;;;;;;;;5042161;28;19916;-58
2022/12/09 12:55:44;;;;;;;;;;;;;;;;;;5039331;28;19985;-58
2022/12/09 12:58:09;;;;;;;;;;;;;;;;;;5055015;28;20042;-58
2022/12/09 13:00:34;;;;;;;;;;;;;;;;;;5056827;28;19927;-59
2022/12/09 13:03:00;;;;;;;;;;;;;;;;;;5037327;28;20035;-60
2022/12/09 13:05:25;;;;;;;;;;;;;;;;;;5059735;28;19923;-58
2022/12/09 13:07:52;;;;;;;;;;;;;;;;;;5045430;28;20481;-59
2022/12/09 13:10:17;;;;;;;;;;;;;;;;;;5039313;28;19916;-58
2022/12/09 13:13:00;;;;;;;;;;;;;;;;;;5060143;28;19917;-59
2022/12/09 13:15:26;;;;;;;;;;;;;;;;;;5053633;28;20054;-58
2022/12/09 13:17:51;;;;;;;;;;;;;;;;;;5053476;28;19920;-58
2022/12/09 13:20:18;;;;;;;;;;;;;;;;;;5056156;28;19928;-58
2022/12/09 13:22:46;;;;;;;;;;;;;;;;;;5052750;28;19916;-59
2022/12/09 13:25:12;;;;;;;;;;;;;;;;;;5053134;28;19943;-58
2022/12/09 13:27:40;;;;;;;;;;;;;;;;;;5032004;28;19924;-59
2022/12/09 13:30:06;;;;;;;;;;;;;;;;;;5035552;28;19920;-59
2022/12/09 13:32:31;;;;;;;;;;;;;;;;;;5037428;28;19981;-59
2022/12/09 13:34:58;;;;;;;;;;;;;;;;;;5049163;28;19919;-59
2022/12/09 13:37:28;;;;;;;;;;;;;;;;;;5040068;28;19916;-58
2022/12/09 13:39:54;;;;;;;;;;;;;;;;;;5051829;28;22227;-58
2022/12/09 13:45:09;;;;;;;;;;;;;;;;;;5055848;28;20118;-58
2022/12/09 13:47:34;;;;;;;;;;;;;;;;;;5034974;28;20299;-58
2022/12/09 13:50:02;;;;;;;;;;;;;;;;;;5034395;28;20000;-60
2022/12/09 13:52:32;;;;;;;;;;;;;;;;;;5057744;28;19950;-60
2022/12/09 13:54:58;;;;;;;;;;;;;;;;;;5041800;28;20027;-60
2022/12/09 13:57:23;;;;;;;;;;;;;;;;;;5051264;28;20089;-60
2022/12/09 13:59:48;;;;;;;;;;;;;;;;;;5058462;28;20877;-59
2022/12/09 14:02:13;;;;;;;;;;;;;;;;;;5038367;28;20375;-59
2022/12/09 14:04:43;;;;;;;;;;;;;;;;;;5037160;28;19920;-59
2022/12/09 14:07:08;;;;;;;;;;;;;;;;;;5038922;28;19930;-59
2022/12/09 14:09:36;;;;;;;;;;;;;;;;;;5056658;28;19916;-59
2022/12/09 14:12:05;;;;;;;;;;;;;;;;;;5051041;28;19996;-59
2022/12/09 14:14:35;;;;;;;;;;;;;;;;;;5055948;28;19920;-59
2022/12/09 14:17:03;;;;;;;;;;;;;;;;;;5058196;28;19974;-59
2022/12/09 14:19:32;;;;;;;;;;;;;;;;;;5058339;28;20678;-59
2022/12/09 14:21:57;;;;;;;;;;;;;;;;;;5023302;28;19932;-59
2022/12/09 14:24:25;;;;;;;;;;;;;;;;;;5039769;28;19923;-59
2022/12/09 14:26:51;;;;;;;;;;;;;;;;;;5054845;28;19955;-59
2022/12/09 14:29:16;;;;;;;;;;;;;;;;;;5057279;28;20332;-59
2022/12/09 14:31:44;;;;;;;;;;;;;;;;;;5032027;28;19916;-59
2022/12/09 14:34:09;;;;;;;;;;;;;;;;;;5056122;28;20371;-59
2022/12/09 14:36:37;;;;;;;;;;;;;;;;;;5055656;28;19921;-59
2022/12/09 14:39:02;;;;;;;;;;;;;;;;;;5055744;28;19978;-59
2022/12/09 14:41:28;;;;;;;;;;;;;;;;;;5052985;28;19920;-60
2022/12/09 14:43:55;;;;;;;;;;;;;;;;;;5057132;28;19916;-59
2022/12/09 14:46:20;;;;;;;;;;;;;;;;;;5058415;28;19932;-59
2022/12/09 14:48:48;;;;;;;;;;;;;;;;;;5056966;28;19924;-59
2022/12/09 14:51:14;;;;;;;;;;;;;;;;;;5039820;28;19927;-59
2022/12/09 14:53:42;;;;;;;;;;;;;;;;;;5056290;28;20007;-59
2022/12/09 14:56:12;;;;;;;;;;;;;;;;;;5057660;28;20404;-59
2022/12/09 14:58:38;;;;;;;;;;;;;;;;;;5051941;28;19927;-59
2022/12/09 15:01:06;;;;;;;;;;;;;;;;;;5059256;28;19923;-60
2022/12/09 15:03:34;;;;;;;;;;;;;;;;;;5057375;28;19924;-59
2022/12/09 15:06:02;;;;;;;;;;;;;;;;;;5055848;28;19924;-59
2022/12/09 15:08:27;;;;;;;;;;;;;;;;;;5034520;28;20018;-59
2022/12/09 15:10:55;;;;;;;;;;;;;;;;;;5036943;28;19916;-59
2022/12/09 15:13:20;;;;;;;;;;;;;;;;;;5041015;28;19990;-59
2022/12/09 15:15:48;;;;;;;;;;;;;;;;;;5040375;28;19958;-59
2022/12/09 15:18:15;;;;;;;;;;;;;;;;;;5055680;28;19924;-59
2022/12/09 15:20:41;;;;;;;;;;;;;;;;;;5055218;28;20106;-59
2022/12/09 15:23:07;;;;;;;;;;;;;;;;;;5042685;28;19920;-60
2022/12/09 15:25:32;;;;;;;;;;;;;;;;;;5018718;28;20204;-59
2022/12/09 15:27:57;;;;;;;;;;;;;;;;;;5052145;28;19924;-58
2022/12/09 15:30:27;;;;;;;;;;;;;;;;;;5044263;28;19920;-60
2022/12/09 15:32:54;;;;;;;;;;;;;;;;;;5056187;28;19930;-60
2022/12/09 15:35:25;;;;;;;;;;;;;;;;;;5037865;28;19923;-58
2022/12/09 15:37:52;;;;;;;;;;;;;;;;;;5038568;28;21680;-59
2022/12/09 15:40:18;;;;;;;;;;;;;;;;;;5050791;28;20267;-59
2022/12/09 15:42:43;;;;;;;;;;;;;;;;;;5057887;28;21589;-59
2022/12/09 15:45:12;;;;;;;;;;;;;;;;;;5035610;28;19916;-58
2022/12/09 15:47:57;;;;;;;;;;;;;;;;;;5040069;28;19928;-59
2022/12/09 15:50:25;;;;;;;;;;;;;;;;;;5056138;28;20748;-58
2022/12/09 15:52:50;;;;;;;;;;;;;;;;;;5058612;28;19970;-59
2022/12/09 15:55:18;;;;;;;;;;;;;;;;;;5055754;28;19916;-58
2022/12/09 15:57:44;;;;;;;;;;;;;;;;;;5057222;28;19938;-59
2022/12/09 16:00:11;;;;;;;;;;;;;;;;;;5056711;28;19919;-59
2022/12/09 16:02:42;;;;;;;;;;;;;;;;;;5021657;28;20340;-59
2022/12/09 16:05:07;;;;;;;;;;;;;;;;;;5057013;28;19921;-60
2022/12/09 16:07:32;;;;;;;;;;;;;;;;;;5039269;28;19958;-59
2022/12/09 16:09:58;;;;;;;;;;;;;;;;;;5057916;28;19920;-59
2022/12/09 16:12:25;;;;;;;;;;;;;;;;;;5037292;28;20598;-59
2022/12/09 16:14:51;;;;;;;;;;;;;;;;;;5057017;28;19916;-59
2022/12/09 16:17:18;;;;;;;;;;;;;;;;;;5038733;28;19940;-59
2022/12/09 16:19:44;;;;;;;;;;;;;;;;;;5055348;28;19981;-58
2022/12/09 16:22:09;;;;;;;;;;;;;;;;;;5059947;28;19961;-58
2022/12/09 16:24:34;;;;;;;;;;;;;;;;;;5056597;28;19916;-58
2022/12/09 16:27:00;;;;;;;;;;;;;;;;;;5048999;28;19920;-58
2022/12/09 16:29:25;;;;;;;;;;;;;;;;;;5037833;28;19916;-58
2022/12/09 16:31:51;;;;;;;;;;;;;;;;;;5034841;28;19924;-58
2022/12/09 16:34:16;;;;;;;;;;;;;;;;;;5051669;28;20334;-58
2022/12/09 16:36:41;;;;;;;;;;;;;;;;;;5050512;28;20199;-58
2022/12/09 16:39:11;;;;;;;;;;;;;;;;;;5032062;28;19931;-58
2022/12/09 16:41:36;;;;;;;;;;;;;;;;;;5053377;28;20731;-58
2022/12/09 16:44:02;;;;;;;;;;;;;;;;;;5034716;28;19966;-58
2022/12/09 16:46:29;;;;;;;;;;;;;;;;;;5050400;28;19920;-58
2022/12/09 16:48:58;;;;;;;;;;;;;;;;;;5055609;28;19920;-58
2022/12/09 16:51:23;;;;;;;;;;;;;;;;;;5035304;28;20314;-58
2022/12/09 16:53:48;;;;;;;;;;;;;;;;;;5055168;28;19985;-58
2022/12/09 16:56:18;;;;;;;;;;;;;;;;;;5054565;28;20031;-58
2022/12/09 16:58:44;;;;;;;;;;;;;;;;;;5051763;28;21775;-58